UAL155 PKMJ-PHNL
Flight info
| Callsign | UAL155 |
|---|---|
| Flight time | 4h 25m |
| Altitude | 35000 |
| Route | MAJ R584 MANRE/N0460F370 R584 CHOKO OPACA4 |
| Aircraft | B38M/M-SDE1FGHILORVWXY/HB1 |
Departure
| Time | 2026-04-21 18:03 |
|---|---|
| Airport | Marshall Islands International Airport (PKMJ) |
Arrival
| Time | 2026-04-21 22:29 |
|---|---|
| Airport | Daniel K. Inouye International Airport (PHNL) |
| Time | Latitude | Longitude | Altitude | Speed | Heading |
|---|---|---|---|---|---|
| 2026-04-21 17:44 | 7.06843 | 171.28189 | 2 ft | 0 kts | 128° |
| 2026-04-21 18:02 | 7.06812 | 171.28209 | 6 ft | 11 kts | 156° |
| 2026-04-21 18:02 | 7.06740 | 171.28191 | 7 ft | 14 kts | 251° |
| 2026-04-21 18:02 | 7.06736 | 171.28175 | 7 ft | 2 kts | 255° |
| 2026-04-21 18:03 | 7.06671 | 171.27911 | 4 ft | 78 kts | 256° |
| 2026-04-21 18:03 | 7.06485 | 171.27143 | 5 ft | 146 kts | 256° |
| 2026-04-21 18:03 | 7.06202 | 171.25979 | 132 ft | 187 kts | 259° |
| 2026-04-21 18:03 | 7.06121 | 171.24651 | 666 ft | 194 kts | 279° |
| 2026-04-21 18:04 | 7.06543 | 171.23351 | 1224 ft | 197 kts | 302° |
| 2026-04-21 18:04 | 7.07260 | 171.22235 | 2094 ft | 186 kts | 308° |
| 2026-04-21 18:04 | 7.08022 | 171.21147 | 2707 ft | 191 kts | 308° |
| 2026-04-21 18:04 | 7.08804 | 171.20062 | 3310 ft | 199 kts | 308° |
| 2026-04-21 18:05 | 7.09664 | 171.18877 | 3641 ft | 223 kts | 308° |
| 2026-04-21 18:05 | 7.10763 | 171.17668 | 3940 ft | 247 kts | 328° |
| 2026-04-21 18:05 | 7.12353 | 171.17120 | 4710 ft | 243 kts | 355° |
| 2026-04-21 18:05 | 7.14097 | 171.16997 | 5247 ft | 260 kts | 359° |
| 2026-04-21 18:06 | 7.15913 | 171.17289 | 5772 ft | 270 kts | 24° |
| 2026-04-21 18:06 | 7.17593 | 171.18136 | 6599 ft | 272 kts | 28° |
| 2026-04-21 18:06 | 7.19150 | 171.19228 | 7313 ft | 275 kts | 49° |
| 2026-04-21 18:06 | 7.20187 | 171.20855 | 8052 ft | 280 kts | 63° |
| 2026-04-21 18:07 | 7.21103 | 171.22607 | 8795 ft | 283 kts | 61° |
| 2026-04-21 18:07 | 7.22041 | 171.24357 | 9604 ft | 286 kts | 61° |
| 2026-04-21 18:07 | 7.22993 | 171.26145 | 10209 ft | 295 kts | 61° |
| 2026-04-21 18:07 | 7.23990 | 171.28023 | 10507 ft | 314 kts | 61° |
| 2026-04-21 18:08 | 7.24688 | 171.29336 | 10669 ft | 327 kts | 61° |
| 2026-04-21 18:08 | 7.25787 | 171.31409 | 10966 ft | 343 kts | 61° |
| 2026-04-21 18:08 | 7.26928 | 171.33561 | 11442 ft | 351 kts | 62° |
| 2026-04-21 18:08 | 7.28079 | 171.35733 | 12135 ft | 353 kts | 62° |
| 2026-04-21 18:09 | 7.29243 | 171.37931 | 12721 ft | 358 kts | 62° |
| 2026-04-21 18:09 | 7.30422 | 171.40157 | 13357 ft | 361 kts | 62° |
| 2026-04-21 18:09 | 7.31609 | 171.42398 | 13948 ft | 365 kts | 62° |
| 2026-04-21 18:09 | 7.32813 | 171.44669 | 14473 ft | 369 kts | 62° |
| 2026-04-21 18:10 | 7.34026 | 171.46960 | 15029 ft | 372 kts | 62° |
| 2026-04-21 18:10 | 7.35252 | 171.49275 | 15555 ft | 376 kts | 62° |
| 2026-04-21 18:10 | 7.36490 | 171.51613 | 16069 ft | 380 kts | 62° |
| 2026-04-21 18:10 | 7.37739 | 171.53973 | 16576 ft | 384 kts | 62° |
| 2026-04-21 18:11 | 7.39001 | 171.56356 | 17075 ft | 387 kts | 62° |
| 2026-04-21 18:11 | 7.40273 | 171.58761 | 17554 ft | 391 kts | 62° |
| 2026-04-21 18:11 | 7.41557 | 171.61187 | 18041 ft | 394 kts | 62° |
| 2026-04-21 18:11 | 7.42851 | 171.63632 | 18470 ft | 397 kts | 63° |
| 2026-04-21 18:12 | 7.44156 | 171.66101 | 18866 ft | 400 kts | 63° |
| 2026-04-21 18:12 | 7.45466 | 171.68577 | 19318 ft | 401 kts | 62° |
| 2026-04-21 18:12 | 7.46783 | 171.71068 | 19704 ft | 405 kts | 62° |
| 2026-04-21 18:12 | 7.48111 | 171.73578 | 20112 ft | 407 kts | 62° |
| 2026-04-21 18:13 | 7.49442 | 171.76099 | 20513 ft | 409 kts | 63° |
| 2026-04-21 18:13 | 7.50788 | 171.78644 | 20880 ft | 412 kts | 63° |
| 2026-04-21 18:13 | 7.52139 | 171.81197 | 21301 ft | 414 kts | 63° |
| 2026-04-21 18:13 | 7.53498 | 171.83772 | 21631 ft | 418 kts | 63° |
| 2026-04-21 18:14 | 7.56224 | 171.88935 | 22376 ft | 423 kts | 63° |
| 2026-04-21 18:14 | 7.57609 | 171.91558 | 22755 ft | 425 kts | 63° |
| 2026-04-21 18:14 | 7.59000 | 171.94191 | 23128 ft | 427 kts | 63° |
| 2026-04-21 18:15 | 7.60400 | 171.96842 | 23446 ft | 430 kts | 63° |
| 2026-04-21 18:15 | 7.61807 | 171.99509 | 23778 ft | 431 kts | 63° |
| 2026-04-21 18:15 | 7.63219 | 172.02186 | 24030 ft | 434 kts | 63° |
| 2026-04-21 18:15 | 7.64641 | 172.04880 | 24342 ft | 436 kts | 63° |
| 2026-04-21 18:16 | 7.66068 | 172.07585 | 24595 ft | 439 kts | 63° |
| 2026-04-21 18:16 | 7.67502 | 172.10304 | 24911 ft | 440 kts | 63° |
| 2026-04-21 18:16 | 7.68942 | 172.13035 | 25192 ft | 442 kts | 63° |
| 2026-04-21 18:16 | 7.70389 | 172.15780 | 25457 ft | 444 kts | 62° |
| 2026-04-21 18:17 | 7.71840 | 172.18533 | 25778 ft | 446 kts | 63° |
| 2026-04-21 18:17 | 7.73299 | 172.21302 | 26006 ft | 449 kts | 62° |
| 2026-04-21 18:17 | 7.74766 | 172.24084 | 26335 ft | 449 kts | 62° |
| 2026-04-21 18:17 | 7.76234 | 172.26872 | 26569 ft | 452 kts | 62° |
| 2026-04-21 18:18 | 7.77711 | 172.29676 | 26890 ft | 453 kts | 62° |
| 2026-04-21 18:18 | 7.79192 | 172.32489 | 27129 ft | 456 kts | 62° |
| 2026-04-21 18:18 | 7.80682 | 172.35317 | 27411 ft | 457 kts | 62° |
| 2026-04-21 18:18 | 7.82173 | 172.38151 | 27667 ft | 459 kts | 62° |
| 2026-04-21 18:19 | 7.83674 | 172.41002 | 27927 ft | 461 kts | 62° |
| 2026-04-21 18:19 | 7.85178 | 172.43862 | 28173 ft | 463 kts | 62° |
| 2026-04-21 18:19 | 7.86693 | 172.46742 | 28386 ft | 465 kts | 62° |
| 2026-04-21 18:19 | 7.88209 | 172.49625 | 28705 ft | 466 kts | 62° |
| 2026-04-21 18:20 | 7.89736 | 172.52529 | 28874 ft | 469 kts | 62° |
| 2026-04-21 18:20 | 7.91266 | 172.55438 | 29183 ft | 470 kts | 62° |
| 2026-04-21 18:20 | 7.92802 | 172.58360 | 29350 ft | 473 kts | 62° |
| 2026-04-21 18:20 | 7.94342 | 172.61292 | 29653 ft | 473 kts | 62° |
| 2026-04-21 18:21 | 7.95890 | 172.64236 | 29828 ft | 477 kts | 62° |
| 2026-04-21 18:21 | 7.97440 | 172.67187 | 30094 ft | 476 kts | 62° |
| 2026-04-21 18:21 | 7.98995 | 172.70147 | 30250 ft | 479 kts | 62° |
| 2026-04-21 18:21 | 8.00556 | 172.73123 | 30475 ft | 479 kts | 62° |
| 2026-04-21 18:22 | 8.02121 | 172.76103 | 30630 ft | 482 kts | 62° |
| 2026-04-21 18:22 | 8.03692 | 172.79096 | 30839 ft | 483 kts | 62° |
| 2026-04-21 18:22 | 8.05265 | 172.82093 | 31014 ft | 485 kts | 62° |
| 2026-04-21 18:22 | 8.06845 | 172.85104 | 31201 ft | 486 kts | 62° |
| 2026-04-21 18:23 | 8.08425 | 172.88117 | 31412 ft | 487 kts | 62° |
| 2026-04-21 18:23 | 8.10009 | 172.91139 | 31663 ft | 486 kts | 62° |
| 2026-04-21 18:23 | 8.11588 | 172.94149 | 31916 ft | 486 kts | 62° |
| 2026-04-21 18:23 | 8.13145 | 172.97119 | 32180 ft | 485 kts | 62° |
| 2026-04-21 18:24 | 8.14721 | 173.00128 | 32447 ft | 485 kts | 61° |
| 2026-04-21 18:24 | 8.16298 | 173.03136 | 32720 ft | 484 kts | 62° |
| 2026-04-21 18:24 | 8.17867 | 173.06133 | 32994 ft | 483 kts | 61° |
| 2026-04-21 18:24 | 8.19437 | 173.09129 | 33256 ft | 483 kts | 62° |
| 2026-04-21 18:25 | 8.21005 | 173.12126 | 33541 ft | 482 kts | 61° |
| 2026-04-21 18:25 | 8.22568 | 173.15111 | 33797 ft | 481 kts | 62° |
| 2026-04-21 18:25 | 8.24131 | 173.18098 | 34046 ft | 481 kts | 62° |
| 2026-04-21 18:25 | 8.25693 | 173.21081 | 34249 ft | 481 kts | 62° |
| 2026-04-21 18:26 | 8.27243 | 173.24060 | 34506 ft | 479 kts | 62° |
| 2026-04-21 18:26 | 8.28766 | 173.27056 | 34714 ft | 479 kts | 62° |
| 2026-04-21 18:26 | 8.30288 | 173.30042 | 34900 ft | 478 kts | 63° |
| 2026-04-21 18:27 | 8.33315 | 173.35972 | 34896 ft | 472 kts | 62° |
| 2026-04-21 18:27 | 8.36326 | 173.41873 | 34896 ft | 473 kts | 63° |
| 2026-04-21 18:28 | 8.39340 | 173.47783 | 34909 ft | 473 kts | 63° |
| 2026-04-21 18:28 | 8.42351 | 173.53689 | 34907 ft | 473 kts | 63° |
| 2026-04-21 18:29 | 8.45375 | 173.59623 | 34911 ft | 477 kts | 63° |
| 2026-04-21 18:29 | 8.48408 | 173.65579 | 34898 ft | 477 kts | 63° |
| 2026-04-21 18:30 | 8.51417 | 173.71490 | 34893 ft | 477 kts | 63° |
| 2026-04-21 18:30 | 8.52935 | 173.74473 | 35025 ft | 477 kts | 63° |
| 2026-04-21 18:30 | 8.54450 | 173.77451 | 35226 ft | 477 kts | 63° |
| 2026-04-21 18:30 | 8.55964 | 173.80426 | 35468 ft | 476 kts | 63° |
| 2026-04-21 18:31 | 8.57475 | 173.83398 | 35689 ft | 475 kts | 63° |
| 2026-04-21 18:31 | 8.58982 | 173.86362 | 35934 ft | 473 kts | 63° |
| 2026-04-21 18:31 | 8.60485 | 173.89316 | 36176 ft | 472 kts | 63° |
| 2026-04-21 18:31 | 8.61985 | 173.92268 | 36387 ft | 471 kts | 63° |
| 2026-04-21 18:32 | 8.63480 | 173.95211 | 36564 ft | 471 kts | 63° |
| 2026-04-21 18:32 | 8.64977 | 173.98159 | 36728 ft | 471 kts | 63° |
| 2026-04-21 18:32 | 8.66471 | 174.01100 | 36912 ft | 470 kts | 63° |
| 2026-04-21 18:33 | 8.69452 | 174.06972 | 36898 ft | 466 kts | 63° |
| 2026-04-21 18:33 | 8.72410 | 174.12801 | 36912 ft | 467 kts | 63° |
| 2026-04-21 18:34 | 8.75371 | 174.18639 | 36908 ft | 467 kts | 63° |
| 2026-04-21 18:34 | 8.78333 | 174.24481 | 36907 ft | 467 kts | 63° |
| 2026-04-21 18:35 | 8.80791 | 174.29330 | 36907 ft | 467 kts | 63° |
| 2026-04-21 18:35 | 8.84254 | 174.36167 | 36909 ft | 468 kts | 63° |
| 2026-04-21 18:36 | 8.87222 | 174.42029 | 36904 ft | 468 kts | 63° |
| 2026-04-21 18:36 | 8.90187 | 174.47888 | 36903 ft | 468 kts | 63° |
| 2026-04-21 18:37 | 8.93147 | 174.53742 | 36896 ft | 468 kts | 63° |
| 2026-04-21 18:37 | 8.96112 | 174.59606 | 36902 ft | 468 kts | 63° |
| 2026-04-21 18:38 | 8.99078 | 174.65475 | 36906 ft | 468 kts | 63° |
| 2026-04-21 18:38 | 9.02039 | 174.71337 | 36909 ft | 468 kts | 63° |
| 2026-04-21 18:39 | 9.04979 | 174.77159 | 36910 ft | 468 kts | 63° |
| 2026-04-21 18:39 | 9.07928 | 174.83004 | 36908 ft | 464 kts | 63° |
| 2026-04-21 18:40 | 9.10863 | 174.88824 | 36913 ft | 464 kts | 63° |
| 2026-04-21 18:40 | 9.13322 | 174.93702 | 36912 ft | 465 kts | 63° |
| 2026-04-21 18:41 | 9.16734 | 175.00473 | 36910 ft | 465 kts | 63° |
| 2026-04-21 18:41 | 9.19670 | 175.06301 | 36907 ft | 465 kts | 64° |
| 2026-04-21 18:42 | 9.22612 | 175.12146 | 36915 ft | 467 kts | 64° |
| 2026-04-21 18:42 | 9.25557 | 175.17999 | 36911 ft | 467 kts | 64° |
| 2026-04-21 18:43 | 9.28500 | 175.23852 | 36911 ft | 466 kts | 64° |
| 2026-04-21 18:43 | 9.31444 | 175.29707 | 36915 ft | 466 kts | 64° |
| 2026-04-21 18:44 | 9.34387 | 175.35566 | 36913 ft | 467 kts | 64° |
| 2026-04-21 18:44 | 9.37328 | 175.41422 | 36917 ft | 467 kts | 64° |
| 2026-04-21 18:45 | 9.40272 | 175.47289 | 36921 ft | 468 kts | 64° |
| 2026-04-21 18:45 | 9.43218 | 175.53162 | 36917 ft | 468 kts | 64° |
| 2026-04-21 18:46 | 9.46142 | 175.58993 | 36915 ft | 467 kts | 64° |
| 2026-04-21 18:46 | 9.49077 | 175.64849 | 36919 ft | 467 kts | 64° |
| 2026-04-21 18:47 | 9.52014 | 175.70713 | 36917 ft | 467 kts | 64° |
| 2026-04-21 18:47 | 9.54947 | 175.76571 | 36918 ft | 467 kts | 64° |
| 2026-04-21 18:48 | 9.57882 | 175.82437 | 36916 ft | 467 kts | 65° |
| 2026-04-21 18:48 | 9.60820 | 175.88310 | 36918 ft | 468 kts | 64° |
| 2026-04-21 18:49 | 9.63759 | 175.94188 | 36919 ft | 467 kts | 65° |
| 2026-04-21 18:49 | 9.66201 | 175.99077 | 36922 ft | 468 kts | 64° |
| 2026-04-21 18:50 | 9.69634 | 176.05952 | 36921 ft | 468 kts | 64° |
| 2026-04-21 18:50 | 9.72570 | 176.11835 | 36920 ft | 468 kts | 64° |
| 2026-04-21 18:51 | 9.75485 | 176.17678 | 36920 ft | 468 kts | 64° |
| 2026-04-21 18:51 | 9.78421 | 176.23565 | 36919 ft | 469 kts | 65° |
| 2026-04-21 18:52 | 9.81366 | 176.29476 | 36923 ft | 470 kts | 64° |
| 2026-04-21 18:52 | 9.84301 | 176.35367 | 36917 ft | 466 kts | 64° |
| 2026-04-21 18:53 | 9.87223 | 176.41236 | 36921 ft | 466 kts | 65° |
| 2026-04-21 18:53 | 9.90146 | 176.47110 | 36923 ft | 466 kts | 65° |
| 2026-04-21 18:54 | 9.93067 | 176.52986 | 36919 ft | 466 kts | 64° |
| 2026-04-21 18:54 | 9.95988 | 176.58863 | 36923 ft | 467 kts | 64° |
| 2026-04-21 18:55 | 9.98417 | 176.63753 | 36925 ft | 467 kts | 64° |
| 2026-04-21 18:55 | 10.01810 | 176.70587 | 36924 ft | 467 kts | 64° |
| 2026-04-21 18:56 | 10.04729 | 176.76468 | 36923 ft | 467 kts | 64° |
| 2026-04-21 18:56 | 10.07649 | 176.82356 | 36923 ft | 467 kts | 65° |
| 2026-04-21 18:57 | 10.10567 | 176.88242 | 36919 ft | 467 kts | 64° |
| 2026-04-21 18:57 | 10.13482 | 176.94124 | 36920 ft | 467 kts | 65° |
| 2026-04-21 18:58 | 10.16406 | 177.00030 | 36927 ft | 470 kts | 65° |
| 2026-04-21 18:58 | 10.19340 | 177.05958 | 36925 ft | 469 kts | 65° |
| 2026-04-21 18:59 | 10.22238 | 177.11816 | 36923 ft | 461 kts | 65° |
| 2026-04-21 18:59 | 10.24626 | 177.16649 | 36926 ft | 461 kts | 65° |
| 2026-04-21 19:00 | 10.27502 | 177.22468 | 36928 ft | 461 kts | 65° |
| 2026-04-21 19:00 | 10.30378 | 177.28292 | 36935 ft | 461 kts | 65° |
| 2026-04-21 19:01 | 10.33252 | 177.34114 | 36928 ft | 462 kts | 65° |
| 2026-04-21 19:01 | 10.36159 | 177.39965 | 36930 ft | 467 kts | 64° |
| 2026-04-21 19:02 | 10.39227 | 177.45775 | 36932 ft | 466 kts | 63° |
| 2026-04-21 19:02 | 10.42277 | 177.51592 | 36931 ft | 466 kts | 64° |
| 2026-04-21 19:03 | 10.45324 | 177.57409 | 36934 ft | 466 kts | 63° |
| 2026-04-21 19:03 | 10.48371 | 177.63229 | 36932 ft | 466 kts | 63° |
| 2026-04-21 19:04 | 10.51395 | 177.69006 | 36932 ft | 467 kts | 63° |
| 2026-04-21 19:04 | 10.54445 | 177.74839 | 36930 ft | 469 kts | 63° |
| 2026-04-21 19:05 | 10.57512 | 177.80707 | 36944 ft | 469 kts | 63° |
| 2026-04-21 19:05 | 10.60532 | 177.86486 | 36932 ft | 460 kts | 64° |
| 2026-04-21 19:06 | 10.63534 | 177.92237 | 36934 ft | 461 kts | 64° |
| 2026-04-21 19:06 | 10.66541 | 177.97999 | 36933 ft | 461 kts | 64° |
| 2026-04-21 19:07 | 10.69546 | 178.03759 | 36936 ft | 461 kts | 63° |
| 2026-04-21 19:07 | 10.72548 | 178.09520 | 36936 ft | 461 kts | 64° |
| 2026-04-21 19:08 | 10.75562 | 178.15304 | 36943 ft | 465 kts | 64° |
| 2026-04-21 19:08 | 10.78589 | 178.21116 | 36937 ft | 464 kts | 64° |
| 2026-04-21 19:09 | 10.81610 | 178.26922 | 36931 ft | 464 kts | 64° |
| 2026-04-21 19:09 | 10.84610 | 178.32689 | 36936 ft | 465 kts | 64° |
| 2026-04-21 19:10 | 10.87632 | 178.38502 | 36939 ft | 465 kts | 64° |
| 2026-04-21 19:10 | 10.90654 | 178.44320 | 36939 ft | 465 kts | 64° |
| 2026-04-21 19:11 | 10.93675 | 178.50136 | 36934 ft | 466 kts | 64° |
| 2026-04-21 19:11 | 10.96694 | 178.55955 | 36933 ft | 462 kts | 64° |
| 2026-04-21 19:12 | 10.99688 | 178.61727 | 36943 ft | 461 kts | 64° |
| 2026-04-21 19:12 | 11.02681 | 178.67502 | 36942 ft | 461 kts | 64° |
| 2026-04-21 19:13 | 11.05677 | 178.73282 | 36937 ft | 462 kts | 64° |
| 2026-04-21 19:13 | 11.08669 | 178.79062 | 36940 ft | 462 kts | 64° |
| 2026-04-21 19:14 | 11.11662 | 178.84845 | 36945 ft | 462 kts | 64° |
| 2026-04-21 19:14 | 11.14662 | 178.90646 | 36946 ft | 464 kts | 64° |
| 2026-04-21 19:15 | 11.17670 | 178.96467 | 36943 ft | 464 kts | 64° |
| 2026-04-21 19:15 | 11.20675 | 179.02284 | 36945 ft | 464 kts | 64° |
| 2026-04-21 19:16 | 11.23662 | 179.08069 | 36944 ft | 464 kts | 64° |
| 2026-04-21 19:16 | 11.26667 | 179.13893 | 36943 ft | 464 kts | 64° |
| 2026-04-21 19:17 | 11.31171 | 179.22630 | 36946 ft | 464 kts | 64° |
| 2026-04-21 19:17 | 11.34159 | 179.28428 | 36944 ft | 459 kts | 64° |
| 2026-04-21 19:18 | 11.37125 | 179.34187 | 36947 ft | 459 kts | 64° |
| 2026-04-21 19:18 | 11.40092 | 179.39952 | 36948 ft | 459 kts | 64° |
| 2026-04-21 19:19 | 11.43057 | 179.45717 | 36944 ft | 459 kts | 64° |
| 2026-04-21 19:19 | 11.46021 | 179.51483 | 36944 ft | 459 kts | 64° |
| 2026-04-21 19:20 | 11.48983 | 179.57252 | 36947 ft | 459 kts | 64° |
| 2026-04-21 19:20 | 11.51946 | 179.63022 | 36941 ft | 460 kts | 63° |
| 2026-04-21 19:21 | 11.54918 | 179.68813 | 36951 ft | 462 kts | 64° |
| 2026-04-21 19:21 | 11.57892 | 179.74612 | 36951 ft | 461 kts | 65° |
| 2026-04-21 19:22 | 11.60864 | 179.80412 | 36950 ft | 461 kts | 64° |
| 2026-04-21 19:22 | 11.63836 | 179.86215 | 36950 ft | 461 kts | 64° |
| 2026-04-21 19:23 | 11.66807 | 179.92019 | 36949 ft | 462 kts | 64° |
| 2026-04-21 19:23 | 11.69757 | 179.97787 | 36944 ft | 462 kts | 64° |
| 2026-04-21 19:24 | 11.72784 | -179.96430 | 36943 ft | 463 kts | 64° |
| 2026-04-21 19:24 | 11.75829 | -179.90631 | 36952 ft | 464 kts | 64° |
| 2026-04-21 19:25 | 11.78874 | -179.84826 | 36951 ft | 464 kts | 64° |
| 2026-04-21 19:25 | 11.81918 | -179.79019 | 36952 ft | 464 kts | 64° |
| 2026-04-21 19:26 | 11.84960 | -179.73212 | 36948 ft | 464 kts | 63° |
| 2026-04-21 19:26 | 11.88000 | -179.67404 | 36955 ft | 464 kts | 63° |
| 2026-04-21 19:27 | 11.91042 | -179.61591 | 36957 ft | 464 kts | 63° |
| 2026-04-21 19:27 | 11.94079 | -179.55782 | 36956 ft | 464 kts | 63° |
| 2026-04-21 19:28 | 11.97117 | -179.49967 | 36957 ft | 464 kts | 64° |
| 2026-04-21 19:28 | 12.00155 | -179.44149 | 36957 ft | 464 kts | 64° |
| 2026-04-21 19:29 | 12.03193 | -179.38330 | 36960 ft | 464 kts | 64° |
| 2026-04-21 19:29 | 12.06225 | -179.32518 | 36962 ft | 461 kts | 64° |
| 2026-04-21 19:30 | 12.09231 | -179.26752 | 36961 ft | 459 kts | 64° |
| 2026-04-21 19:30 | 12.12235 | -179.20984 | 36953 ft | 460 kts | 64° |
| 2026-04-21 19:31 | 12.15252 | -179.15189 | 36961 ft | 462 kts | 64° |
| 2026-04-21 19:31 | 12.18269 | -179.09393 | 36960 ft | 462 kts | 64° |
| 2026-04-21 19:32 | 12.21287 | -179.03589 | 36963 ft | 462 kts | 63° |
| 2026-04-21 19:32 | 12.24279 | -178.97827 | 36960 ft | 462 kts | 63° |
| 2026-04-21 19:33 | 12.27294 | -178.92024 | 36958 ft | 462 kts | 63° |
| 2026-04-21 19:33 | 12.30307 | -178.86218 | 36961 ft | 462 kts | 64° |
| 2026-04-21 19:34 | 12.33323 | -178.80400 | 36970 ft | 465 kts | 64° |
| 2026-04-21 19:34 | 12.36353 | -178.74554 | 36965 ft | 465 kts | 64° |
| 2026-04-21 19:35 | 12.40893 | -178.65789 | 36974 ft | 465 kts | 63° |
| 2026-04-21 19:36 | 12.43899 | -178.59979 | 36966 ft | 460 kts | 64° |
| 2026-04-21 19:36 | 12.46893 | -178.54191 | 36969 ft | 460 kts | 64° |
| 2026-04-21 19:37 | 12.49887 | -178.48400 | 36965 ft | 460 kts | 64° |
| 2026-04-21 19:37 | 12.52884 | -178.42598 | 36968 ft | 462 kts | 63° |
| 2026-04-21 19:38 | 12.55888 | -178.36777 | 36972 ft | 462 kts | 63° |
| 2026-04-21 19:38 | 12.58381 | -178.31943 | 36968 ft | 462 kts | 63° |
| 2026-04-21 19:39 | 12.61889 | -178.25137 | 36966 ft | 462 kts | 64° |
| 2026-04-21 19:39 | 12.64890 | -178.19312 | 36968 ft | 462 kts | 63° |
| 2026-04-21 19:40 | 12.67887 | -178.13490 | 36969 ft | 462 kts | 63° |
| 2026-04-21 19:40 | 12.70867 | -178.07700 | 36970 ft | 463 kts | 64° |
| 2026-04-21 19:41 | 12.73874 | -178.01853 | 36968 ft | 465 kts | 64° |
| 2026-04-21 19:41 | 12.76883 | -177.95993 | 36987 ft | 465 kts | 63° |
| 2026-04-21 19:42 | 12.79879 | -177.90158 | 36968 ft | 462 kts | 63° |
| 2026-04-21 19:42 | 12.82869 | -177.84331 | 36969 ft | 462 kts | 64° |
| 2026-04-21 19:43 | 12.85854 | -177.78508 | 36964 ft | 462 kts | 64° |
| 2026-04-21 19:43 | 12.88842 | -177.72676 | 36967 ft | 462 kts | 63° |
| 2026-04-21 19:44 | 12.91828 | -177.66845 | 36985 ft | 463 kts | 63° |
| 2026-04-21 19:44 | 12.94821 | -177.60999 | 36978 ft | 463 kts | 63° |
| 2026-04-21 19:45 | 12.97810 | -177.55153 | 36974 ft | 463 kts | 63° |
| 2026-04-21 19:45 | 13.00800 | -177.49303 | 36973 ft | 463 kts | 63° |
| 2026-04-21 19:46 | 13.03786 | -177.43455 | 36968 ft | 463 kts | 63° |
| 2026-04-21 19:46 | 13.06772 | -177.37604 | 36972 ft | 463 kts | 63° |
| 2026-04-21 19:47 | 13.09758 | -177.31751 | 36973 ft | 463 kts | 63° |
| 2026-04-21 19:47 | 13.12743 | -177.25892 | 36984 ft | 464 kts | 63° |
| 2026-04-21 19:48 | 13.15702 | -177.20083 | 36982 ft | 462 kts | 64° |
| 2026-04-21 19:48 | 13.18675 | -177.14242 | 36982 ft | 462 kts | 64° |
| 2026-04-21 19:49 | 13.21647 | -177.08396 | 36983 ft | 462 kts | 63° |
| 2026-04-21 19:49 | 13.24619 | -177.02552 | 36986 ft | 462 kts | 64° |
| 2026-04-21 19:50 | 13.27088 | -176.97687 | 36982 ft | 462 kts | 64° |
| 2026-04-21 19:50 | 13.30059 | -176.91838 | 36974 ft | 463 kts | 64° |
| 2026-04-21 19:51 | 13.33034 | -176.85972 | 36991 ft | 464 kts | 64° |
| 2026-04-21 19:51 | 13.36013 | -176.80094 | 36990 ft | 464 kts | 64° |
| 2026-04-21 19:52 | 13.38989 | -176.74222 | 36988 ft | 464 kts | 64° |
| 2026-04-21 19:52 | 13.41963 | -176.68342 | 36985 ft | 464 kts | 64° |
| 2026-04-21 19:53 | 13.44936 | -176.62469 | 36988 ft | 464 kts | 64° |
| 2026-04-21 19:53 | 13.47907 | -176.56587 | 36987 ft | 464 kts | 64° |
| 2026-04-21 19:54 | 13.50882 | -176.50700 | 36996 ft | 465 kts | 63° |
| 2026-04-21 19:54 | 13.53859 | -176.44803 | 36986 ft | 465 kts | 64° |
| 2026-04-21 19:55 | 13.56832 | -176.38907 | 36990 ft | 465 kts | 64° |
| 2026-04-21 19:55 | 13.59806 | -176.33006 | 36990 ft | 465 kts | 64° |
| 2026-04-21 19:56 | 13.62779 | -176.27105 | 36989 ft | 465 kts | 63° |
| 2026-04-21 19:56 | 13.65748 | -176.21204 | 36990 ft | 465 kts | 63° |
| 2026-04-21 19:57 | 13.68720 | -176.15297 | 36993 ft | 465 kts | 64° |
| 2026-04-21 19:57 | 13.71688 | -176.09389 | 36998 ft | 465 kts | 64° |
| 2026-04-21 19:58 | 13.74639 | -176.03514 | 36993 ft | 465 kts | 63° |
| 2026-04-21 19:58 | 13.77606 | -175.97601 | 36995 ft | 465 kts | 63° |
| 2026-04-21 19:59 | 13.80574 | -175.91682 | 36989 ft | 465 kts | 63° |
| 2026-04-21 19:59 | 13.83541 | -175.85763 | 36998 ft | 465 kts | 63° |
| 2026-04-21 20:00 | 13.86502 | -175.79849 | 36996 ft | 465 kts | 63° |
| 2026-04-21 20:00 | 13.89464 | -175.73933 | 36999 ft | 465 kts | 63° |
| 2026-04-21 20:01 | 13.92423 | -175.68013 | 37005 ft | 465 kts | 63° |
| 2026-04-21 20:01 | 13.95381 | -175.62093 | 36997 ft | 465 kts | 63° |
| 2026-04-21 20:02 | 13.98336 | -175.56174 | 36998 ft | 465 kts | 63° |
| 2026-04-21 20:02 | 14.01292 | -175.50248 | 36997 ft | 465 kts | 63° |
| 2026-04-21 20:03 | 14.04243 | -175.44329 | 37002 ft | 465 kts | 63° |
| 2026-04-21 20:03 | 14.07195 | -175.38404 | 36999 ft | 465 kts | 63° |
| 2026-04-21 20:04 | 14.10144 | -175.32478 | 37000 ft | 465 kts | 63° |
| 2026-04-21 20:04 | 14.13090 | -175.26555 | 36995 ft | 464 kts | 63° |
| 2026-04-21 20:05 | 14.16034 | -175.20632 | 36998 ft | 464 kts | 63° |
| 2026-04-21 20:05 | 14.18980 | -175.14702 | 37004 ft | 465 kts | 63° |
| 2026-04-21 20:06 | 14.21930 | -175.08758 | 36997 ft | 466 kts | 62° |
| 2026-04-21 20:06 | 14.24877 | -175.02814 | 37002 ft | 466 kts | 62° |
| 2026-04-21 20:07 | 14.27827 | -174.96864 | 37006 ft | 466 kts | 62° |
| 2026-04-21 20:07 | 14.30773 | -174.90913 | 37001 ft | 466 kts | 62° |
| 2026-04-21 20:08 | 14.33716 | -174.84963 | 36997 ft | 466 kts | 62° |
| 2026-04-21 20:08 | 14.36662 | -174.79007 | 37004 ft | 466 kts | 62° |
| 2026-04-21 20:09 | 14.39586 | -174.73086 | 37001 ft | 466 kts | 62° |
| 2026-04-21 20:09 | 14.42527 | -174.67129 | 37002 ft | 466 kts | 63° |
| 2026-04-21 20:10 | 14.45466 | -174.61170 | 37003 ft | 465 kts | 62° |
| 2026-04-21 20:10 | 14.48401 | -174.55217 | 37009 ft | 465 kts | 62° |
| 2026-04-21 20:11 | 14.51332 | -174.49264 | 37006 ft | 466 kts | 62° |
| 2026-04-21 20:11 | 14.54271 | -174.43292 | 37005 ft | 468 kts | 62° |
| 2026-04-21 20:12 | 14.57215 | -174.37306 | 37002 ft | 468 kts | 62° |
| 2026-04-21 20:12 | 14.60157 | -174.31318 | 37008 ft | 468 kts | 62° |
| 2026-04-21 20:13 | 14.63096 | -174.25332 | 37001 ft | 467 kts | 62° |
| 2026-04-21 20:13 | 14.66032 | -174.19346 | 36998 ft | 467 kts | 62° |
| 2026-04-21 20:14 | 14.68966 | -174.13361 | 37006 ft | 467 kts | 61° |
| 2026-04-21 20:14 | 14.71899 | -174.07372 | 37009 ft | 467 kts | 62° |
| 2026-04-21 20:15 | 14.74832 | -174.01380 | 37005 ft | 468 kts | 61° |
| 2026-04-21 20:15 | 14.77765 | -173.95387 | 37007 ft | 467 kts | 62° |
| 2026-04-21 20:16 | 14.80674 | -173.89430 | 37016 ft | 467 kts | 62° |
| 2026-04-21 20:16 | 14.83601 | -173.83435 | 37018 ft | 467 kts | 61° |
| 2026-04-21 20:17 | 14.86525 | -173.77441 | 37003 ft | 467 kts | 62° |
| 2026-04-21 20:17 | 14.89449 | -173.71443 | 37018 ft | 467 kts | 61° |
| 2026-04-21 20:18 | 14.91897 | -173.66417 | 37017 ft | 467 kts | 62° |
| 2026-04-21 20:18 | 14.95291 | -173.59443 | 37010 ft | 467 kts | 62° |
| 2026-04-21 20:19 | 14.98209 | -173.53442 | 37015 ft | 467 kts | 62° |
| 2026-04-21 20:19 | 15.01127 | -173.47437 | 37015 ft | 468 kts | 62° |
| 2026-04-21 20:20 | 15.04046 | -173.41425 | 37011 ft | 467 kts | 61° |
| 2026-04-21 20:20 | 15.06961 | -173.35416 | 37011 ft | 467 kts | 62° |
| 2026-04-21 20:21 | 15.09875 | -173.29403 | 37014 ft | 467 kts | 62° |
| 2026-04-21 20:21 | 15.12790 | -173.23383 | 37015 ft | 468 kts | 62° |
| 2026-04-21 20:22 | 15.15684 | -173.17403 | 37014 ft | 468 kts | 62° |
| 2026-04-21 20:22 | 15.20075 | -173.08321 | 37017 ft | 469 kts | 62° |
| 2026-04-21 20:23 | 15.22970 | -173.02325 | 37017 ft | 469 kts | 62° |
| 2026-04-21 20:23 | 15.25884 | -172.96286 | 37020 ft | 468 kts | 62° |
| 2026-04-21 20:24 | 15.28794 | -172.90249 | 37018 ft | 469 kts | 62° |
| 2026-04-21 20:24 | 15.31705 | -172.84206 | 37015 ft | 469 kts | 62° |
| 2026-04-21 20:25 | 15.34124 | -172.79182 | 37022 ft | 469 kts | 62° |
| 2026-04-21 20:25 | 15.37526 | -172.72107 | 37025 ft | 470 kts | 62° |
| 2026-04-21 20:26 | 15.40439 | -172.66046 | 37018 ft | 470 kts | 62° |
| 2026-04-21 20:26 | 15.43349 | -172.59985 | 37020 ft | 470 kts | 62° |
| 2026-04-21 20:27 | 15.46258 | -172.53918 | 37021 ft | 470 kts | 62° |
| 2026-04-21 20:27 | 15.49166 | -172.47851 | 37022 ft | 470 kts | 62° |
| 2026-04-21 20:28 | 15.52071 | -172.41785 | 37023 ft | 470 kts | 62° |
| 2026-04-21 20:28 | 15.54958 | -172.35753 | 37020 ft | 470 kts | 62° |
| 2026-04-21 20:29 | 15.57884 | -172.29634 | 37021 ft | 471 kts | 62° |
| 2026-04-21 20:29 | 15.60771 | -172.23592 | 37020 ft | 471 kts | 62° |
| 2026-04-21 20:30 | 15.63675 | -172.17509 | 37020 ft | 470 kts | 62° |
| 2026-04-21 20:30 | 15.66578 | -172.11423 | 37023 ft | 470 kts | 62° |
| 2026-04-21 20:31 | 15.69478 | -172.05337 | 37023 ft | 470 kts | 62° |
| 2026-04-21 20:31 | 15.72375 | -171.99252 | 37022 ft | 471 kts | 62° |
| 2026-04-21 20:32 | 15.75273 | -171.93159 | 37025 ft | 471 kts | 62° |
| 2026-04-21 20:32 | 15.78171 | -171.87064 | 37028 ft | 471 kts | 62° |
| 2026-04-21 20:33 | 15.81065 | -171.80971 | 37027 ft | 471 kts | 62° |
| 2026-04-21 20:33 | 15.83957 | -171.74875 | 37035 ft | 471 kts | 62° |
| 2026-04-21 20:34 | 15.86841 | -171.68794 | 37023 ft | 468 kts | 62° |
| 2026-04-21 20:34 | 15.89713 | -171.62730 | 37031 ft | 469 kts | 62° |
| 2026-04-21 20:35 | 15.92588 | -171.56648 | 37029 ft | 469 kts | 63° |
| 2026-04-21 20:35 | 15.95343 | -171.50501 | 37030 ft | 469 kts | 63° |
| 2026-04-21 20:36 | 15.98109 | -171.44362 | 37030 ft | 469 kts | 63° |
| 2026-04-21 20:36 | 16.00859 | -171.38259 | 37029 ft | 469 kts | 63° |
| 2026-04-21 20:37 | 16.03643 | -171.32077 | 37032 ft | 469 kts | 63° |
| 2026-04-21 20:37 | 16.06408 | -171.25931 | 37032 ft | 469 kts | 64° |
| 2026-04-21 20:38 | 16.09154 | -171.19821 | 37032 ft | 470 kts | 64° |
| 2026-04-21 20:38 | 16.11916 | -171.13670 | 37032 ft | 469 kts | 64° |
| 2026-04-21 20:39 | 16.14676 | -171.07516 | 37031 ft | 469 kts | 64° |
| 2026-04-21 20:39 | 16.16970 | -171.02401 | 37040 ft | 468 kts | 63° |
| 2026-04-21 20:40 | 16.19730 | -170.96239 | 37031 ft | 466 kts | 63° |
| 2026-04-21 20:40 | 16.22448 | -170.90163 | 37034 ft | 466 kts | 64° |
| 2026-04-21 20:41 | 16.25185 | -170.84042 | 37033 ft | 467 kts | 64° |
| 2026-04-21 20:41 | 16.27921 | -170.77916 | 37032 ft | 467 kts | 64° |
| 2026-04-21 20:42 | 16.30656 | -170.71787 | 37034 ft | 467 kts | 64° |
| 2026-04-21 20:42 | 16.33390 | -170.65653 | 37034 ft | 467 kts | 64° |
| 2026-04-21 20:43 | 16.36122 | -170.59521 | 37034 ft | 467 kts | 64° |
| 2026-04-21 20:43 | 16.38851 | -170.53388 | 37038 ft | 467 kts | 64° |
| 2026-04-21 20:44 | 16.41578 | -170.47255 | 37034 ft | 466 kts | 64° |
| 2026-04-21 20:44 | 16.44300 | -170.41126 | 37033 ft | 466 kts | 64° |
| 2026-04-21 20:45 | 16.47022 | -170.34991 | 37035 ft | 466 kts | 64° |
| 2026-04-21 20:45 | 16.49742 | -170.28855 | 37033 ft | 466 kts | 64° |
| 2026-04-21 20:46 | 16.52439 | -170.22765 | 37033 ft | 466 kts | 64° |
| 2026-04-21 20:46 | 16.55153 | -170.16634 | 37040 ft | 466 kts | 64° |
| 2026-04-21 20:47 | 16.57868 | -170.10493 | 37038 ft | 467 kts | 64° |
| 2026-04-21 20:47 | 16.60581 | -170.04350 | 37036 ft | 467 kts | 63° |
| 2026-04-21 20:48 | 16.63293 | -169.98203 | 37038 ft | 467 kts | 64° |
| 2026-04-21 20:48 | 16.66003 | -169.92056 | 37037 ft | 467 kts | 64° |
| 2026-04-21 20:49 | 16.68713 | -169.85903 | 37039 ft | 467 kts | 64° |
| 2026-04-21 20:49 | 16.71419 | -169.79754 | 37040 ft | 467 kts | 64° |
| 2026-04-21 20:50 | 16.74125 | -169.73598 | 37038 ft | 467 kts | 64° |
| 2026-04-21 20:50 | 16.76828 | -169.67441 | 37036 ft | 467 kts | 63° |
| 2026-04-21 20:51 | 16.79532 | -169.61279 | 37043 ft | 467 kts | 63° |
| 2026-04-21 20:51 | 16.82237 | -169.55106 | 37039 ft | 468 kts | 64° |
| 2026-04-21 20:52 | 16.84942 | -169.48930 | 37037 ft | 468 kts | 64° |
| 2026-04-21 20:52 | 16.87646 | -169.42748 | 37035 ft | 468 kts | 64° |
| 2026-04-21 20:53 | 16.90347 | -169.36567 | 37041 ft | 468 kts | 63° |
| 2026-04-21 20:53 | 16.93047 | -169.30383 | 37038 ft | 468 kts | 64° |
| 2026-04-21 20:54 | 16.95744 | -169.24200 | 37044 ft | 468 kts | 63° |
| 2026-04-21 20:54 | 16.98440 | -169.18012 | 37044 ft | 468 kts | 64° |
| 2026-04-21 20:55 | 17.01135 | -169.11822 | 37041 ft | 468 kts | 64° |
| 2026-04-21 20:55 | 17.03827 | -169.05632 | 37045 ft | 468 kts | 63° |
| 2026-04-21 20:56 | 17.06517 | -168.99441 | 37048 ft | 468 kts | 63° |
| 2026-04-21 20:56 | 17.09206 | -168.93247 | 37049 ft | 468 kts | 63° |
| 2026-04-21 20:57 | 17.11895 | -168.87045 | 37048 ft | 469 kts | 64° |
| 2026-04-21 20:57 | 17.14565 | -168.80881 | 37050 ft | 469 kts | 64° |
| 2026-04-21 20:58 | 17.17252 | -168.74673 | 37048 ft | 469 kts | 64° |
| 2026-04-21 20:58 | 17.19937 | -168.68462 | 37054 ft | 469 kts | 64° |
| 2026-04-21 20:59 | 17.22617 | -168.62256 | 37044 ft | 468 kts | 63° |
| 2026-04-21 20:59 | 17.25296 | -168.56047 | 37041 ft | 468 kts | 63° |
| 2026-04-21 21:00 | 17.27973 | -168.49836 | 37046 ft | 468 kts | 64° |
| 2026-04-21 21:00 | 17.30648 | -168.43625 | 37049 ft | 468 kts | 64° |
| 2026-04-21 21:01 | 17.33322 | -168.37408 | 37050 ft | 468 kts | 64° |
| 2026-04-21 21:01 | 17.35977 | -168.31232 | 37050 ft | 468 kts | 64° |
| 2026-04-21 21:02 | 17.38646 | -168.25011 | 37044 ft | 468 kts | 64° |
| 2026-04-21 21:02 | 17.41317 | -168.18785 | 37045 ft | 470 kts | 64° |
| 2026-04-21 21:03 | 17.43992 | -168.12541 | 37050 ft | 470 kts | 64° |
| 2026-04-21 21:03 | 17.46667 | -168.06291 | 37050 ft | 470 kts | 64° |
| 2026-04-21 21:04 | 17.49338 | -168.00044 | 37048 ft | 470 kts | 64° |
| 2026-04-21 21:04 | 17.52007 | -167.93794 | 37049 ft | 470 kts | 64° |
| 2026-04-21 21:05 | 17.54672 | -167.87549 | 37049 ft | 469 kts | 64° |
| 2026-04-21 21:05 | 17.57334 | -167.81301 | 37042 ft | 470 kts | 64° |
| 2026-04-21 21:06 | 17.59996 | -167.75049 | 37041 ft | 469 kts | 64° |
| 2026-04-21 21:06 | 17.62656 | -167.68799 | 37051 ft | 470 kts | 64° |
| 2026-04-21 21:07 | 17.65313 | -167.62546 | 37053 ft | 469 kts | 64° |
| 2026-04-21 21:07 | 17.67967 | -167.56293 | 37054 ft | 469 kts | 63° |
| 2026-04-21 21:08 | 17.70619 | -167.50039 | 37055 ft | 469 kts | 63° |
| 2026-04-21 21:08 | 17.73269 | -167.43784 | 37051 ft | 470 kts | 63° |
| 2026-04-21 21:09 | 17.75902 | -167.37560 | 37051 ft | 470 kts | 63° |
| 2026-04-21 21:09 | 17.78549 | -167.31297 | 37051 ft | 470 kts | 63° |
| 2026-04-21 21:10 | 17.81195 | -167.25033 | 37051 ft | 470 kts | 64° |
| 2026-04-21 21:10 | 17.83838 | -167.18768 | 37047 ft | 469 kts | 63° |
| 2026-04-21 21:11 | 17.86478 | -167.12501 | 37066 ft | 469 kts | 63° |
| 2026-04-21 21:11 | 17.89117 | -167.06232 | 37058 ft | 470 kts | 63° |
| 2026-04-21 21:12 | 17.91754 | -166.99961 | 37054 ft | 470 kts | 63° |
| 2026-04-21 21:12 | 17.94390 | -166.93685 | 37051 ft | 470 kts | 63° |
| 2026-04-21 21:13 | 17.97025 | -166.87407 | 37051 ft | 470 kts | 63° |
| 2026-04-21 21:13 | 17.99658 | -166.81125 | 37058 ft | 471 kts | 63° |
| 2026-04-21 21:14 | 18.02297 | -166.74821 | 37053 ft | 472 kts | 63° |
| 2026-04-21 21:14 | 18.04936 | -166.68511 | 37053 ft | 471 kts | 63° |
| 2026-04-21 21:15 | 18.07572 | -166.62204 | 37054 ft | 472 kts | 63° |
| 2026-04-21 21:15 | 18.10207 | -166.55890 | 37054 ft | 472 kts | 63° |
| 2026-04-21 21:16 | 18.12839 | -166.49577 | 37055 ft | 472 kts | 63° |
| 2026-04-21 21:16 | 18.15473 | -166.43251 | 37057 ft | 473 kts | 63° |
| 2026-04-21 21:17 | 18.18093 | -166.36953 | 37055 ft | 473 kts | 63° |
| 2026-04-21 21:17 | 18.20746 | -166.30569 | 37057 ft | 473 kts | 63° |
| 2026-04-21 21:18 | 18.23361 | -166.24270 | 37055 ft | 473 kts | 63° |
| 2026-04-21 21:18 | 18.25991 | -166.17926 | 37056 ft | 473 kts | 63° |
| 2026-04-21 21:19 | 18.28620 | -166.11579 | 37059 ft | 474 kts | 63° |
| 2026-04-21 21:19 | 18.31251 | -166.05220 | 37057 ft | 474 kts | 63° |
| 2026-04-21 21:20 | 18.33880 | -165.98858 | 37053 ft | 474 kts | 63° |
| 2026-04-21 21:20 | 18.36506 | -165.92498 | 37053 ft | 474 kts | 63° |
| 2026-04-21 21:21 | 18.39131 | -165.86133 | 37053 ft | 474 kts | 63° |
| 2026-04-21 21:21 | 18.41754 | -165.79765 | 37054 ft | 474 kts | 63° |
| 2026-04-21 21:22 | 18.44374 | -165.73397 | 37060 ft | 474 kts | 63° |
| 2026-04-21 21:22 | 18.46992 | -165.67025 | 37059 ft | 474 kts | 63° |
| 2026-04-21 21:23 | 18.49610 | -165.60649 | 37056 ft | 474 kts | 63° |
| 2026-04-21 21:23 | 18.52207 | -165.54317 | 37056 ft | 474 kts | 63° |
| 2026-04-21 21:24 | 18.54837 | -165.47895 | 37056 ft | 474 kts | 63° |
| 2026-04-21 21:24 | 18.57437 | -165.41542 | 37067 ft | 476 kts | 63° |
| 2026-04-21 21:25 | 18.60053 | -165.35139 | 37053 ft | 475 kts | 63° |
| 2026-04-21 21:25 | 18.62667 | -165.28737 | 37059 ft | 476 kts | 63° |
| 2026-04-21 21:26 | 18.65278 | -165.22333 | 37059 ft | 475 kts | 63° |
| 2026-04-21 21:26 | 18.67888 | -165.15923 | 37059 ft | 475 kts | 63° |
| 2026-04-21 21:27 | 18.70496 | -165.09514 | 37056 ft | 476 kts | 63° |
| 2026-04-21 21:27 | 18.73100 | -165.03106 | 37060 ft | 475 kts | 63° |
| 2026-04-21 21:28 | 18.75701 | -164.96699 | 37059 ft | 475 kts | 63° |
| 2026-04-21 21:29 | 18.79157 | -164.88171 | 37059 ft | 475 kts | 63° |
| 2026-04-21 21:29 | 18.81753 | -164.81758 | 37059 ft | 475 kts | 63° |
| 2026-04-21 21:30 | 18.84346 | -164.75347 | 37061 ft | 475 kts | 63° |
| 2026-04-21 21:30 | 18.86940 | -164.68925 | 37063 ft | 475 kts | 63° |
| 2026-04-21 21:31 | 18.89530 | -164.62502 | 37061 ft | 475 kts | 63° |
| 2026-04-21 21:31 | 18.92118 | -164.56080 | 37060 ft | 475 kts | 63° |
| 2026-04-21 21:32 | 18.94704 | -164.49657 | 37057 ft | 475 kts | 63° |
| 2026-04-21 21:32 | 18.97289 | -164.43226 | 37060 ft | 475 kts | 63° |
| 2026-04-21 21:33 | 18.99870 | -164.36796 | 37062 ft | 475 kts | 63° |
| 2026-04-21 21:33 | 19.02450 | -164.30364 | 37065 ft | 475 kts | 64° |
| 2026-04-21 21:34 | 19.05011 | -164.23971 | 37059 ft | 475 kts | 64° |
| 2026-04-21 21:34 | 19.07585 | -164.17537 | 37062 ft | 475 kts | 64° |
| 2026-04-21 21:35 | 19.10158 | -164.11100 | 37068 ft | 475 kts | 64° |
| 2026-04-21 21:35 | 19.12728 | -164.04661 | 37061 ft | 475 kts | 64° |
| 2026-04-21 21:36 | 19.15295 | -163.98225 | 37072 ft | 475 kts | 64° |
| 2026-04-21 21:36 | 19.17861 | -163.91781 | 37065 ft | 476 kts | 64° |
| 2026-04-21 21:37 | 19.20428 | -163.85328 | 37064 ft | 476 kts | 64° |
| 2026-04-21 21:37 | 19.22992 | -163.78875 | 37062 ft | 476 kts | 64° |
| 2026-04-21 21:38 | 19.25552 | -163.72423 | 37059 ft | 476 kts | 64° |
| 2026-04-21 21:38 | 19.28110 | -163.65968 | 37062 ft | 476 kts | 64° |
| 2026-04-21 21:39 | 19.30673 | -163.59494 | 37066 ft | 479 kts | 64° |
| 2026-04-21 21:39 | 19.33228 | -163.53034 | 37064 ft | 479 kts | 64° |
| 2026-04-21 21:40 | 19.35800 | -163.46524 | 37062 ft | 479 kts | 64° |
| 2026-04-21 21:40 | 19.38365 | -163.40025 | 37065 ft | 477 kts | 64° |
| 2026-04-21 21:41 | 19.40914 | -163.33557 | 37065 ft | 476 kts | 64° |
| 2026-04-21 21:41 | 19.43463 | -163.27082 | 37069 ft | 477 kts | 64° |
| 2026-04-21 21:42 | 19.46017 | -163.20585 | 37063 ft | 478 kts | 64° |
| 2026-04-21 21:42 | 19.48570 | -163.14084 | 37064 ft | 478 kts | 64° |
| 2026-04-21 21:43 | 19.51121 | -163.07582 | 37067 ft | 478 kts | 64° |
| 2026-04-21 21:43 | 19.53670 | -163.01076 | 37064 ft | 478 kts | 64° |
| 2026-04-21 21:44 | 19.56214 | -162.94572 | 37071 ft | 478 kts | 64° |
| 2026-04-21 21:44 | 19.58766 | -162.88043 | 37068 ft | 480 kts | 64° |
| 2026-04-21 21:45 | 19.61317 | -162.81508 | 37066 ft | 480 kts | 64° |
| 2026-04-21 21:45 | 19.63868 | -162.74963 | 37069 ft | 479 kts | 64° |
| 2026-04-21 21:46 | 19.66435 | -162.68446 | 37066 ft | 478 kts | 63° |
| 2026-04-21 21:46 | 19.69046 | -162.61955 | 37064 ft | 478 kts | 63° |
| 2026-04-21 21:47 | 19.71660 | -162.55451 | 37067 ft | 480 kts | 64° |
| 2026-04-21 21:47 | 19.74259 | -162.48977 | 37066 ft | 480 kts | 64° |
| 2026-04-21 21:48 | 19.76872 | -162.42459 | 37064 ft | 480 kts | 64° |
| 2026-04-21 21:48 | 19.79486 | -162.35932 | 37064 ft | 480 kts | 64° |
| 2026-04-21 21:49 | 19.82094 | -162.29410 | 37064 ft | 480 kts | 64° |
| 2026-04-21 21:49 | 19.84703 | -162.22881 | 37074 ft | 480 kts | 64° |
| 2026-04-21 21:50 | 19.87305 | -162.16358 | 37068 ft | 479 kts | 64° |
| 2026-04-21 21:50 | 19.89904 | -162.09836 | 37073 ft | 480 kts | 64° |
| 2026-04-21 21:51 | 19.92503 | -162.03304 | 37070 ft | 480 kts | 64° |
| 2026-04-21 21:51 | 19.95100 | -161.96771 | 37072 ft | 480 kts | 64° |
| 2026-04-21 21:52 | 19.97697 | -161.90229 | 37078 ft | 480 kts | 64° |
| 2026-04-21 21:52 | 20.00285 | -161.83701 | 37071 ft | 479 kts | 64° |
| 2026-04-21 21:53 | 20.02872 | -161.77167 | 37073 ft | 479 kts | 64° |
| 2026-04-21 21:53 | 20.05455 | -161.70636 | 37069 ft | 479 kts | 64° |
| 2026-04-21 21:54 | 20.08017 | -161.64150 | 37070 ft | 479 kts | 64° |
| 2026-04-21 21:54 | 20.10596 | -161.57614 | 37072 ft | 479 kts | 64° |
| 2026-04-21 21:55 | 20.13170 | -161.51079 | 37069 ft | 478 kts | 64° |
| 2026-04-21 21:55 | 20.15738 | -161.44552 | 37071 ft | 478 kts | 64° |
| 2026-04-21 21:56 | 20.18305 | -161.38019 | 37070 ft | 478 kts | 64° |
| 2026-04-21 21:56 | 20.20869 | -161.31488 | 37073 ft | 479 kts | 64° |
| 2026-04-21 21:57 | 20.23433 | -161.24949 | 37078 ft | 478 kts | 64° |
| 2026-04-21 21:57 | 20.25994 | -161.18406 | 37078 ft | 479 kts | 64° |
| 2026-04-21 21:58 | 20.28552 | -161.11864 | 37073 ft | 479 kts | 64° |
| 2026-04-21 21:58 | 20.31110 | -161.05313 | 37071 ft | 479 kts | 64° |
| 2026-04-21 21:59 | 20.33664 | -160.98768 | 37072 ft | 479 kts | 64° |
| 2026-04-21 21:59 | 20.36217 | -160.92216 | 37074 ft | 479 kts | 64° |
| 2026-04-21 22:00 | 20.38594 | -160.85579 | 37101 ft | 479 kts | 67° |
| 2026-04-21 22:00 | 20.40682 | -160.78915 | 37066 ft | 478 kts | 74° |
| 2026-04-21 22:01 | 20.42181 | -160.71995 | 37072 ft | 480 kts | 73° |
| 2026-04-21 22:01 | 20.43679 | -160.65065 | 37077 ft | 479 kts | 73° |
| 2026-04-21 22:02 | 20.45173 | -160.58135 | 37072 ft | 479 kts | 73° |
| 2026-04-21 22:02 | 20.46662 | -160.51211 | 37086 ft | 479 kts | 73° |
| 2026-04-21 22:03 | 20.48146 | -160.44298 | 37074 ft | 478 kts | 73° |
| 2026-04-21 22:03 | 20.49626 | -160.37386 | 37075 ft | 478 kts | 73° |
| 2026-04-21 22:04 | 20.51104 | -160.30472 | 37074 ft | 478 kts | 73° |
| 2026-04-21 22:04 | 20.52569 | -160.23604 | 37077 ft | 478 kts | 73° |
| 2026-04-21 22:05 | 20.54041 | -160.16691 | 37082 ft | 477 kts | 73° |
| 2026-04-21 22:05 | 20.55505 | -160.09799 | 37073 ft | 476 kts | 73° |
| 2026-04-21 22:05 | 20.56237 | -160.06346 | 36921 ft | 476 kts | 73° |
| 2026-04-21 22:06 | 20.56964 | -160.02913 | 36113 ft | 477 kts | 74° |
| 2026-04-21 22:06 | 20.57700 | -159.99431 | 34917 ft | 485 kts | 75° |
| 2026-04-21 22:06 | 20.58443 | -159.95916 | 34057 ft | 484 kts | 75° |
| 2026-04-21 22:06 | 20.59171 | -159.92474 | 33346 ft | 478 kts | 75° |
| 2026-04-21 22:07 | 20.60000 | -159.89093 | 32841 ft | 465 kts | 67° |
| 2026-04-21 22:07 | 20.61341 | -159.85994 | 32113 ft | 462 kts | 60° |
| 2026-04-21 22:07 | 20.62769 | -159.82883 | 31156 ft | 468 kts | 62° |
| 2026-04-21 22:07 | 20.64164 | -159.79743 | 30282 ft | 468 kts | 62° |
| 2026-04-21 22:08 | 20.65541 | -159.76618 | 29579 ft | 462 kts | 62° |
| 2026-04-21 22:08 | 20.66891 | -159.73550 | 29074 ft | 451 kts | 62° |
| 2026-04-21 22:08 | 20.68209 | -159.70551 | 28613 ft | 442 kts | 62° |
| 2026-04-21 22:08 | 20.69526 | -159.67548 | 28031 ft | 451 kts | 63° |
| 2026-04-21 22:09 | 20.70860 | -159.64504 | 27465 ft | 454 kts | 63° |
| 2026-04-21 22:09 | 20.72196 | -159.61454 | 26916 ft | 453 kts | 63° |
| 2026-04-21 22:09 | 20.73524 | -159.58424 | 26350 ft | 449 kts | 63° |
| 2026-04-21 22:09 | 20.74844 | -159.55407 | 25786 ft | 447 kts | 63° |
| 2026-04-21 22:10 | 20.76160 | -159.52401 | 25237 ft | 446 kts | 62° |
| 2026-04-21 22:10 | 20.77469 | -159.49405 | 24660 ft | 445 kts | 63° |
| 2026-04-21 22:10 | 20.78779 | -159.46408 | 24042 ft | 445 kts | 63° |
| 2026-04-21 22:10 | 20.80086 | -159.43416 | 23447 ft | 444 kts | 63° |
| 2026-04-21 22:11 | 20.81380 | -159.40451 | 22824 ft | 436 kts | 63° |
| 2026-04-21 22:11 | 20.82653 | -159.37533 | 22292 ft | 431 kts | 63° |
| 2026-04-21 22:11 | 20.83915 | -159.34641 | 21750 ft | 428 kts | 63° |
| 2026-04-21 22:11 | 20.85166 | -159.31770 | 21241 ft | 425 kts | 63° |
| 2026-04-21 22:12 | 20.86409 | -159.28916 | 20734 ft | 422 kts | 63° |
| 2026-04-21 22:12 | 20.87628 | -159.26117 | 20236 ft | 419 kts | 63° |
| 2026-04-21 22:12 | 20.88854 | -159.23298 | 19740 ft | 417 kts | 63° |
| 2026-04-21 22:12 | 20.90073 | -159.20495 | 19255 ft | 415 kts | 63° |
| 2026-04-21 22:13 | 20.91285 | -159.17707 | 18770 ft | 413 kts | 63° |
| 2026-04-21 22:13 | 20.92491 | -159.14931 | 18284 ft | 411 kts | 63° |
| 2026-04-21 22:13 | 20.93691 | -159.12167 | 17754 ft | 408 kts | 63° |
| 2026-04-21 22:13 | 20.94882 | -159.09423 | 17275 ft | 405 kts | 63° |
| 2026-04-21 22:14 | 20.96061 | -159.06705 | 16818 ft | 401 kts | 63° |
| 2026-04-21 22:14 | 20.97230 | -159.04008 | 16368 ft | 397 kts | 63° |
| 2026-04-21 22:14 | 20.98387 | -159.01339 | 15922 ft | 394 kts | 63° |
| 2026-04-21 22:14 | 20.99536 | -158.98685 | 15476 ft | 391 kts | 63° |
| 2026-04-21 22:15 | 21.00674 | -158.96055 | 15036 ft | 388 kts | 63° |
| 2026-04-21 22:15 | 21.01804 | -158.93444 | 14601 ft | 386 kts | 63° |
| 2026-04-21 22:15 | 21.02925 | -158.90852 | 14184 ft | 383 kts | 63° |
| 2026-04-21 22:15 | 21.04039 | -158.88273 | 13727 ft | 381 kts | 64° |
| 2026-04-21 22:16 | 21.05146 | -158.85711 | 13251 ft | 378 kts | 64° |
| 2026-04-21 22:16 | 21.06245 | -158.83165 | 12813 ft | 375 kts | 64° |
| 2026-04-21 22:16 | 21.07332 | -158.80646 | 12388 ft | 371 kts | 64° |
| 2026-04-21 22:16 | 21.08410 | -158.78149 | 11976 ft | 368 kts | 64° |
| 2026-04-21 22:17 | 21.09476 | -158.75676 | 11558 ft | 365 kts | 64° |
| 2026-04-21 22:17 | 21.10534 | -158.73220 | 11155 ft | 361 kts | 64° |
| 2026-04-21 22:17 | 21.11575 | -158.70803 | 10948 ft | 352 kts | 64° |
| 2026-04-21 22:17 | 21.12585 | -158.68458 | 10798 ft | 342 kts | 64° |
| 2026-04-21 22:18 | 21.13566 | -158.66179 | 10634 ft | 332 kts | 64° |
| 2026-04-21 22:18 | 21.14519 | -158.63964 | 10478 ft | 323 kts | 64° |
| 2026-04-21 22:18 | 21.15446 | -158.61809 | 10321 ft | 314 kts | 64° |
| 2026-04-21 22:18 | 21.16346 | -158.59714 | 10178 ft | 305 kts | 64° |
| 2026-04-21 22:19 | 21.17223 | -158.57674 | 10002 ft | 299 kts | 64° |
| 2026-04-21 22:19 | 21.18088 | -158.55660 | 9665 ft | 297 kts | 64° |
| 2026-04-21 22:19 | 21.18949 | -158.53655 | 9330 ft | 296 kts | 64° |
| 2026-04-21 22:19 | 21.19804 | -158.51661 | 9013 ft | 294 kts | 64° |
| 2026-04-21 22:20 | 21.20368 | -158.50347 | 8813 ft | 292 kts | 65° |
| 2026-04-21 22:20 | 21.21213 | -158.48375 | 8497 ft | 290 kts | 65° |
| 2026-04-21 22:20 | 21.22052 | -158.46417 | 8194 ft | 288 kts | 65° |
| 2026-04-21 22:20 | 21.22885 | -158.44473 | 7895 ft | 286 kts | 65° |
| 2026-04-21 22:21 | 21.23712 | -158.42541 | 7586 ft | 285 kts | 65° |
| 2026-04-21 22:21 | 21.24536 | -158.40617 | 7299 ft | 283 kts | 65° |
| 2026-04-21 22:21 | 21.25355 | -158.38704 | 6993 ft | 282 kts | 65° |
| 2026-04-21 22:21 | 21.26168 | -158.36803 | 6706 ft | 280 kts | 65° |
| 2026-04-21 22:22 | 21.26979 | -158.34907 | 6408 ft | 279 kts | 65° |
| 2026-04-21 22:22 | 21.27786 | -158.33019 | 6094 ft | 278 kts | 65° |
| 2026-04-21 22:22 | 21.28589 | -158.31140 | 5800 ft | 276 kts | 65° |
| 2026-04-21 22:22 | 21.29376 | -158.29299 | 5667 ft | 267 kts | 65° |
| 2026-04-21 22:23 | 21.30136 | -158.27517 | 5521 ft | 259 kts | 65° |
| 2026-04-21 22:23 | 21.30873 | -158.25791 | 5373 ft | 251 kts | 65° |
| 2026-04-21 22:23 | 21.31591 | -158.24110 | 5227 ft | 245 kts | 65° |
| 2026-04-21 22:23 | 21.32257 | -158.22438 | 5072 ft | 243 kts | 72° |
| 2026-04-21 22:24 | 21.32545 | -158.20662 | 4779 ft | 242 kts | 87° |
| 2026-04-21 22:24 | 21.32549 | -158.18854 | 4446 ft | 241 kts | 91° |
| 2026-04-21 22:24 | 21.32529 | -158.17079 | 4123 ft | 235 kts | 90° |
| 2026-04-21 22:24 | 21.32524 | -158.15341 | 3789 ft | 231 kts | 89° |
| 2026-04-21 22:25 | 21.32523 | -158.13638 | 3476 ft | 227 kts | 89° |
| 2026-04-21 22:25 | 21.32523 | -158.11964 | 3161 ft | 222 kts | 90° |
| 2026-04-21 22:25 | 21.32523 | -158.10333 | 2891 ft | 214 kts | 90° |
| 2026-04-21 22:25 | 21.32523 | -158.08788 | 2611 ft | 199 kts | 90° |
| 2026-04-21 22:26 | 21.32523 | -158.07352 | 2359 ft | 191 kts | 90° |
| 2026-04-21 22:26 | 21.32523 | -158.05977 | 2125 ft | 174 kts | 90° |
| 2026-04-21 22:26 | 21.32523 | -158.04741 | 1898 ft | 160 kts | 90° |
| 2026-04-21 22:26 | 21.32523 | -158.03561 | 1685 ft | 157 kts | 90° |
| 2026-04-21 22:27 | 21.32524 | -158.02390 | 1483 ft | 157 kts | 90° |
| 2026-04-21 22:27 | 21.32525 | -158.01225 | 1278 ft | 158 kts | 90° |
| 2026-04-21 22:27 | 21.32526 | -158.00042 | 1099 ft | 158 kts | 91° |
| 2026-04-21 22:27 | 21.32528 | -157.98859 | 839 ft | 159 kts | 92° |
| 2026-04-21 22:28 | 21.32527 | -157.97670 | 721 ft | 158 kts | 92° |
| 2026-04-21 22:28 | 21.32541 | -157.96497 | 487 ft | 157 kts | 92° |
| 2026-04-21 22:28 | 21.32538 | -157.95348 | 264 ft | 155 kts | 94° |
| 2026-04-21 22:28 | 21.32528 | -157.94214 | 88 ft | 150 kts | 93° |
| 2026-04-21 22:29 | 21.32526 | -157.93184 | 27 ft | 119 kts | 90° |
| 2026-04-21 22:29 | 21.32525 | -157.92425 | 27 ft | 84 kts | 90° |
| 2026-04-21 22:29 | 21.32527 | -157.91978 | 26 ft | 30 kts | 89° |
| 2026-04-21 22:29 | 21.32589 | -157.91836 | 26 ft | 22 kts | 3° |
| 2026-04-21 22:30 | 21.32713 | -157.91901 | 26 ft | 20 kts | 327° |
| 2026-04-21 22:30 | 21.32776 | -157.91990 | 26 ft | 14 kts | 270° |
| 2026-04-21 22:30 | 21.32775 | -157.92101 | 26 ft | 15 kts | 269° |
| 2026-04-21 22:30 | 21.32829 | -157.92169 | 27 ft | 14 kts | 349° |
| 2026-04-21 22:31 | 21.32932 | -157.92156 | 26 ft | 16 kts | 8° |
| 2026-04-21 22:31 | 21.33047 | -157.92136 | 26 ft | 16 kts | 11° |
| 2026-04-21 22:31 | 21.33111 | -157.92125 | 26 ft | 4 kts | 8° |
| 2026-04-21 22:31 | 21.33121 | -157.92124 | 26 ft | 2 kts | 8° |
| 2026-04-21 22:32 | 21.33129 | -157.92123 | 26 ft | 1 kts | 8° |
| 2026-04-21 22:32 | 21.33133 | -157.92122 | 26 ft | 0 kts | 8° |